Time;durP1;ratioP1;P1;durP2;ratioP2;P2;SDS_P1;SDS_P2;PMS_P1;PMS_P2;Temp;Humidity;BMP_temperature;BMP_pressure;BME280_temperature;BME280_humidity;BME280_pressure;Samples;Min_cycle;Max_cycle;Signal;HPM_P1;HPM_P2
2022/06/29 03:00:43;;;;;;;5.97;2.78;;;16.00;99.90;;;;;;6202983;22;20015;-86
2022/06/29 03:03:09;;;;;;;5.88;2.70;;;16.00;99.90;;;;;;6255293;22;20445;-86
2022/06/29 03:05:35;;;;;;;7.13;3.40;;;16.00;99.90;;;;;;6231519;22;20014;-85
2022/06/29 03:08:00;;;;;;;5.13;3.05;;;16.00;99.90;;;;;;6256462;22;20341;-87
2022/06/29 03:10:26;;;;;;;4.90;3.20;;;16.10;99.90;;;;;;6232552;22;20012;-86
2022/06/29 03:12:52;;;;;;;4.22;3.00;;;16.10;99.90;;;;;;6285417;22;20053;-85
2022/06/29 03:15:18;;;;;;;7.75;3.00;;;16.10;99.90;;;;;;6284867;22;20011;-87
2022/06/29 03:17:44;;;;;;;4.70;3.08;;;16.10;99.90;;;;;;6259089;22;20027;-85
2022/06/29 03:20:10;;;;;;;5.95;3.00;;;16.10;99.90;;;;;;6257524;22;20364;-85
2022/06/29 03:22:36;;;;;;;5.45;2.88;;;16.10;99.90;;;;;;6258491;22;20018;-87
2022/06/29 03:25:02;;;;;;;4.60;2.70;;;16.10;99.90;;;;;;6257535;22;20043;-86
2022/06/29 03:27:28;;;;;;;4.28;2.85;;;16.10;99.90;;;;;;6258275;22;20072;-85
2022/06/29 03:29:53;;;;;;;5.53;2.97;;;16.10;99.90;;;;;;6286087;22;20015;-85
2022/06/29 03:32:19;;;;;;;5.90;2.95;;;16.10;99.90;;;;;;6258628;22;20046;-86
2022/06/29 03:34:45;;;;;;;4.03;2.75;;;16.10;99.90;;;;;;6285926;22;20095;-84
2022/06/29 03:37:10;;;;;;;6.13;2.83;;;16.10;99.90;;;;;;6258973;22;20453;-86
2022/06/29 03:39:36;;;;;;;4.55;2.80;;;16.10;99.90;;;;;;6258456;22;20035;-86
2022/06/29 03:42:02;;;;;;;10.30;3.00;;;16.10;99.90;;;;;;6233317;22;20071;-85
2022/06/29 03:44:28;;;;;;;6.10;2.70;;;16.10;99.90;;;;;;6232810;22;20011;-86
2022/06/29 03:46:53;;;;;;;4.22;2.78;;;16.10;99.90;;;;;;6258005;22;20008;-86
2022/06/29 03:49:19;;;;;;;5.35;2.80;;;16.10;99.90;;;;;;6257267;22;20083;-86
2022/06/29 03:51:45;;;;;;;6.72;3.35;;;16.00;99.90;;;;;;6285081;22;20087;-86
2022/06/29 03:54:10;;;;;;;8.15;3.00;;;16.00;99.90;;;;;;6232170;22;20039;-86
2022/06/29 03:56:36;;;;;;;6.05;3.33;;;16.00;99.90;;;;;;6257864;22;20023;-86
2022/06/29 03:59:01;;;;;;;6.68;2.88;;;16.00;99.90;;;;;;6258152;22;20019;-85
2022/06/29 04:01:27;;;;;;;3.95;2.78;;;16.00;99.90;;;;;;6257214;22;20349;-85
2022/06/29 04:03:53;;;;;;;5.38;2.78;;;16.00;99.90;;;;;;6233138;22;20015;-86
2022/06/29 04:06:18;;;;;;;5.43;2.90;;;16.00;99.90;;;;;;6257694;22;20004;-85
2022/06/29 04:08:44;;;;;;;4.45;3.10;;;16.00;99.90;;;;;;6259012;22;20091;-85
2022/06/29 04:13:55;;;;;;;5.68;2.97;;;16.00;99.90;;;;;;6258975;22;20016;-87
2022/06/29 04:16:20;;;;;;;4.65;2.63;;;16.00;99.90;;;;;;6286710;22;20075;-85
2022/06/29 04:18:46;;;;;;;6.28;3.03;;;16.00;99.90;;;;;;6284638;22;20012;-87
2022/06/29 04:21:12;;;;;;;5.30;3.30;;;16.10;99.90;;;;;;6233646;22;20015;-85
2022/06/29 04:23:37;;;;;;;4.70;3.10;;;16.00;99.90;;;;;;6284449;22;20008;-86
2022/06/29 04:26:03;;;;;;;4.88;3.10;;;16.10;99.90;;;;;;6257808;22;20435;-86
2022/06/29 04:28:29;;;;;;;4.40;3.30;;;16.00;99.90;;;;;;6285534;22;20008;-86
2022/06/29 04:30:54;;;;;;;4.68;2.72;;;16.10;99.90;;;;;;6258038;22;20094;-85
2022/06/29 04:33:20;;;;;;;5.32;3.70;;;16.00;99.90;;;;;;6233557;22;20012;-87
2022/06/29 04:35:46;;;;;;;6.78;3.88;;;16.00;99.90;;;;;;6258504;22;20016;-87
2022/06/29 04:38:11;;;;;;;4.57;3.50;;;16.00;99.90;;;;;;6258983;22;20007;-86
2022/06/29 04:40:37;;;;;;;6.18;3.67;;;16.00;99.90;;;;;;6284422;22;20083;-86
2022/06/29 04:43:03;;;;;;;7.13;3.67;;;16.00;99.90;;;;;;6285507;22;20018;-86
2022/06/29 04:48:13;;;;;;;5.50;3.30;;;16.00;99.90;;;;;;6284957;22;20016;-86
2022/06/29 04:50:38;;;;;;;6.32;4.28;;;16.10;99.90;;;;;;6257517;22;20018;-86
2022/06/29 04:53:05;;;;;;;6.95;3.80;;;16.10;99.90;;;;;;6257333;22;20467;-85
2022/06/29 04:55:30;;;;;;;7.78;3.58;;;16.10;99.90;;;;;;6257781;22;20015;-86
2022/06/29 04:57:56;;;;;;;4.65;3.38;;;16.10;99.90;;;;;;6231641;22;20019;-85
2022/06/29 05:00:22;;;;;;;6.22;3.75;;;16.10;99.90;;;;;;6256874;22;20090;-85
2022/06/29 05:02:47;;;;;;;6.53;3.35;;;16.20;99.90;;;;;;6284297;22;20039;-86
2022/06/29 05:05:13;;;;;;;5.82;3.65;;;16.20;99.90;;;;;;6284306;22;20007;-86
2022/06/29 05:07:39;;;;;;;4.95;3.80;;;16.20;99.90;;;;;;6232169;22;20349;-85
2022/06/29 05:10:05;;;;;;;4.97;3.42;;;16.20;99.90;;;;;;6256746;22;20525;-84
2022/06/29 05:12:31;;;;;;;6.20;3.67;;;16.20;99.90;;;;;;6257238;22;20079;-85
2022/06/29 05:14:56;;;;;;;6.18;3.53;;;16.20;99.90;;;;;;6257156;22;20024;-85
2022/06/29 05:17:22;;;;;;;4.70;3.70;;;16.20;99.90;;;;;;6232670;22;20318;-86
2022/06/29 05:19:47;;;;;;;5.45;3.58;;;16.30;99.90;;;;;;6283215;22;20012;-85
2022/06/29 05:22:13;;;;;;;7.75;3.83;;;16.20;99.90;;;;;;6231263;22;20012;-84
2022/06/29 05:24:39;;;;;;;10.40;3.78;;;16.30;99.90;;;;;;6256890;22;20315;-84
2022/06/29 05:27:05;;;;;;;6.78;4.00;;;16.30;99.90;;;;;;6282620;22;20016;-86
2022/06/29 05:29:31;;;;;;;5.47;3.70;;;16.30;99.90;;;;;;6283859;22;20450;-86
2022/06/29 05:31:57;;;;;;;8.60;3.75;;;16.40;99.90;;;;;;6282837;22;20437;-86
2022/06/29 05:34:22;;;;;;;9.15;3.75;;;16.40;99.90;;;;;;6229762;22;20019;-87
2022/06/29 05:36:48;;;;;;;5.22;3.53;;;16.50;99.90;;;;;;6230971;22;20087;-86
2022/06/29 05:39:14;;;;;;;6.10;3.72;;;16.50;99.90;;;;;;6256583;22;20499;-86
2022/06/29 05:41:39;;;;;;;5.63;3.95;;;16.60;99.90;;;;;;6256323;22;20508;-85
2022/06/29 05:44:05;;;;;;;4.80;3.50;;;16.60;99.90;;;;;;6282565;22;20014;-85
2022/06/29 05:46:32;;;;;;;7.80;3.83;;;16.70;99.90;;;;;;6230846;22;20015;-85
2022/06/29 05:48:58;;;;;;;5.75;3.30;;;16.70;99.90;;;;;;6255365;22;20038;-85
2022/06/29 05:51:24;;;;;;;4.43;3.40;;;16.80;99.90;;;;;;6283530;22;20071;-84
2022/06/29 05:53:50;;;;;;;6.13;3.58;;;16.90;99.90;;;;;;6255196;22;20015;-85
2022/06/29 05:56:16;;;;;;;11.07;3.70;;;16.80;99.90;;;;;;6283096;22;20012;-85
2022/06/29 05:58:42;;;;;;;7.07;3.63;;;16.90;99.90;;;;;;6230988;22;20018;-85
2022/06/29 06:01:09;;;;;;;5.80;3.38;;;16.90;99.90;;;;;;6283251;22;20337;-86
2022/06/29 06:03:35;;;;;;;5.53;3.45;;;17.00;99.90;;;;;;6255930;22;20019;-88
2022/06/29 06:06:01;;;;;;;6.03;3.70;;;17.00;99.90;;;;;;6255974;22;20042;-86
2022/06/29 06:08:27;;;;;;;7.13;3.55;;;17.10;99.90;;;;;;6283256;22;20373;-84
2022/06/29 06:10:52;;;;;;;6.07;3.53;;;17.10;99.90;;;;;;6255361;22;20014;-85
2022/06/29 06:13:18;;;;;;;8.02;3.92;;;17.20;99.90;;;;;;6231684;22;20068;-86
2022/06/29 06:15:43;;;;;;;6.28;3.50;;;17.20;99.90;;;;;;6283437;22;20203;-86
2022/06/29 06:18:09;;;;;;;5.88;3.40;;;17.20;99.90;;;;;;6255451;22;20015;-87
2022/06/29 06:20:35;;;;;;;5.97;2.90;;;17.30;99.90;;;;;;6260033;22;20025;-85
2022/06/29 06:23:00;;;;;;;7.30;3.67;;;17.30;99.90;;;;;;6283828;22;20507;-87
2022/06/29 06:25:26;;;;;;;6.68;3.47;;;17.40;99.90;;;;;;6255666;22;20012;-87
2022/06/29 06:27:51;;;;;;;4.75;3.08;;;17.40;99.90;;;;;;6229791;22;20015;-85
2022/06/29 06:30:17;;;;;;;5.70;2.92;;;17.50;99.90;;;;;;6280846;22;20010;-84
2022/06/29 06:32:43;;;;;;;6.72;3.58;;;17.60;99.90;;;;;;6228786;22;20008;-86
2022/06/29 06:35:09;;;;;;;6.82;2.95;;;17.60;99.90;;;;;;6253653;22;20012;-84
2022/06/29 06:37:35;;;;;;;5.95;3.03;;;17.70;99.90;;;;;;6229292;22;20047;-84
2022/06/29 06:42:45;;;;;;;5.15;2.80;;;17.80;99.90;;;;;;6264531;22;20019;-81
2022/06/29 06:45:10;;;;;;;6.93;3.20;;;17.90;99.90;;;;;;6286021;22;20034;-83
2022/06/29 06:47:36;;;;;;;9.57;2.78;;;18.00;99.90;;;;;;6285748;22;20030;-84
2022/06/29 06:50:02;;;;;;;6.07;3.25;;;18.00;99.90;;;;;;6285357;22;20012;-85
2022/06/29 06:52:29;;;;;;;5.20;2.88;;;18.10;99.90;;;;;;6284384;22;20004;-86
2022/06/29 06:54:55;;;;;;;4.68;2.50;;;18.10;99.90;;;;;;6256564;22;20026;-84
2022/06/29 06:57:20;;;;;;;4.78;2.70;;;18.20;99.90;;;;;;6232340;22;20098;-84
2022/06/29 06:59:48;;;;;;;6.53;2.50;;;18.30;99.90;;;;;;6258357;22;20465;-84
2022/06/29 07:02:14;;;;;;;6.47;2.75;;;18.40;99.90;;;;;;6255232;22;20031;-84
2022/06/29 07:04:41;;;;;;;3.72;2.60;;;18.50;99.90;;;;;;6258030;22;20015;-85
2022/06/29 07:07:06;;;;;;;5.82;2.88;;;18.50;99.90;;;;;;6256551;22;20192;-81
2022/06/29 07:09:32;;;;;;;4.18;2.30;;;18.70;99.90;;;;;;6283465;22;20012;-85
2022/06/29 07:11:57;;;;;;;5.90;2.20;;;18.70;99.90;;;;;;6231275;22;20393;-86
2022/06/29 07:14:23;;;;;;;4.53;2.30;;;18.80;99.90;;;;;;6283664;22;20011;-85
2022/06/29 07:16:48;;;;;;;5.18;2.00;;;19.00;99.90;;;;;;6255377;22;20011;-83
2022/06/29 07:19:14;;;;;;;5.75;1.98;;;19.00;99.90;;;;;;6255735;22;20020;-85
2022/06/29 07:21:40;;;;;;;3.53;2.10;;;19.20;99.90;;;;;;6282818;22;20383;-84
2022/06/29 07:24:06;;;;;;;4.78;2.03;;;19.20;99.90;;;;;;6282630;22;20042;-85
2022/06/29 07:26:32;;;;;;;6.22;2.20;;;19.30;99.90;;;;;;6256228;22;20015;-85
2022/06/29 07:28:58;;;;;;;3.35;1.92;;;19.40;99.90;;;;;;6255933;22;20456;-83
2022/06/29 07:31:24;;;;;;;6.22;2.05;;;19.50;99.90;;;;;;6281880;22;20039;-85
2022/06/29 07:33:49;;;;;;;3.38;1.90;;;19.50;99.90;;;;;;6228973;22;20012;-84
2022/06/29 07:36:15;;;;;;;4.05;1.85;;;19.60;99.90;;;;;;6282079;22;20082;-86
2022/06/29 07:38:40;;;;;;;5.35;2.15;;;19.70;99.90;;;;;;6253804;22;20038;-84
2022/06/29 07:41:06;;;;;;;4.95;2.10;;;19.80;99.90;;;;;;6254614;22;20049;-85
2022/06/29 07:43:32;;;;;;;3.95;1.90;;;19.90;99.90;;;;;;6281646;22;20061;-84
2022/06/29 07:45:58;;;;;;;3.70;1.77;;;20.00;99.90;;;;;;6280364;22;20018;-84
2022/06/29 07:48:24;;;;;;;3.92;1.80;;;20.10;99.90;;;;;;6279351;22;20016;-84
2022/06/29 07:50:50;;;;;;;4.82;2.10;;;20.20;99.90;;;;;;6252989;22;20011;-85
2022/06/29 07:53:16;;;;;;;6.30;2.13;;;20.30;99.90;;;;;;6252631;22;20405;-85
2022/06/29 07:55:44;;;;;;;5.05;1.85;;;20.40;99.90;;;;;;6253187;22;20069;-84
2022/06/29 07:58:14;;;;;;;4.28;1.83;;;20.50;99.90;;;;;;6253477;22;20318;-85
2022/06/29 08:00:41;;;;;;;3.75;1.73;;;20.60;99.90;;;;;;6280300;22;20038;-87
2022/06/29 08:03:07;;;;;;;3.92;1.88;;;20.60;99.90;;;;;;6256425;22;20438;-77
2022/06/29 08:05:36;;;;;;;3.47;1.65;;;20.70;99.90;;;;;;6280269;22;20012;-87
2022/06/29 08:08:03;;;;;;;2.95;1.70;;;20.80;99.90;;;;;;6256248;22;20436;-87
2022/06/29 08:10:31;;;;;;;4.53;1.83;;;20.90;99.90;;;;;;6233384;22;20012;-86
2022/06/29 08:12:56;;;;;;;2.92;1.67;;;21.00;99.90;;;;;;6257803;22;20031;-87
2022/06/29 08:15:23;;;;;;;2.97;1.58;;;21.00;99.90;;;;;;6285876;22;20020;-87
2022/06/29 08:17:48;;;;;;;5.72;1.65;;;21.20;99.90;;;;;;6285946;22;20037;-85
2022/06/29 08:20:15;;;;;;;5.85;2.60;;;21.30;99.90;;;;;;6284285;22;20051;-88
2022/06/29 08:22:41;;;;;;;3.25;1.90;;;21.30;99.90;;;;;;6254699;22;20020;-85
2022/06/29 08:25:09;;;;;;;7.20;1.95;;;21.40;99.90;;;;;;6253054;22;20023;-86
2022/06/29 08:27:34;;;;;;;4.18;1.75;;;21.50;99.90;;;;;;6280694;22;20518;-86
2022/06/29 08:30:00;;;;;;;5.22;1.88;;;21.60;99.90;;;;;;6280236;22;20011;-85
2022/06/29 08:32:26;;;;;;;5.35;1.77;;;21.80;99.90;;;;;;6228456;22;20030;-85
2022/06/29 08:34:52;;;;;;;5.30;1.80;;;21.80;99.90;;;;;;6279910;22;20019;-84
2022/06/29 08:37:18;;;;;;;3.63;1.50;;;22.00;99.90;;;;;;6253440;22;20019;-85
2022/06/29 08:39:44;;;;;;;3.85;1.75;;;22.10;99.90;;;;;;6252943;22;20016;-85
2022/06/29 08:42:11;;;;;;;3.45;1.80;;;22.20;99.90;;;;;;6279612;22;20069;-85
2022/06/29 08:44:38;;;;;;;4.65;2.38;;;22.20;99.90;;;;;;6252067;22;20018;-85
2022/06/29 08:47:05;;;;;;;3.63;1.63;;;22.30;99.90;;;;;;6252238;22;20334;-83
2022/06/29 08:49:32;;;;;;;5.30;1.90;;;22.40;99.90;;;;;;6279496;22;20012;-84
2022/06/29 08:51:59;;;;;;;3.22;1.75;;;22.50;99.90;;;;;;6252249;22;20058;-83
2022/06/29 08:54:25;;;;;;;4.47;1.80;;;22.70;99.90;;;;;;6227166;22;20069;-84
2022/06/29 08:56:56;;;;;;;3.70;1.70;;;22.80;99.90;;;;;;6279284;22;20039;-84
2022/06/29 08:59:23;;;;;;;6.38;2.20;;;22.90;99.90;;;;;;6279391;22;20015;-85
2022/06/29 09:01:52;;;;;;;5.00;2.15;;;23.00;99.90;;;;;;6226814;22;20121;-84
2022/06/29 09:04:21;;;;;;;4.47;2.00;;;23.10;99.90;;;;;;6227655;22;20023;-84
2022/06/29 09:06:52;;;;;;;4.10;2.15;;;23.30;99.90;;;;;;6251539;22;20026;-83
2022/06/29 09:09:18;;;;;;;4.40;1.90;;;23.30;99.90;;;;;;6278470;22;20019;-86
2022/06/29 09:11:44;;;;;;;3.22;1.77;;;23.40;99.90;;;;;;6251505;22;20361;-84
2022/06/29 09:14:15;;;;;;;3.38;1.70;;;23.40;99.90;;;;;;6251954;22;20069;-84
2022/06/29 09:16:52;;;;;;;2.53;1.60;;;23.50;99.90;;;;;;6251994;22;20073;-84
2022/06/29 09:19:20;;;;;;;2.80;1.50;;;23.60;99.90;;;;;;6279025;22;20083;-84
2022/06/29 09:21:50;;;;;;;4.40;1.80;;;23.80;99.90;;;;;;6251604;22;20097;-84
2022/06/29 09:24:16;;;;;;;2.58;1.60;;;23.90;99.90;;;;;;6251903;22;20278;-84
2022/06/29 09:26:42;;;;;;;3.35;1.50;;;24.10;99.90;;;;;;6278904;22;20020;-85
2022/06/29 09:29:20;;;;;;;3.88;1.67;;;24.10;99.90;;;;;;6278882;22;20046;-84
2022/06/29 09:32:06;;;;;;;2.75;1.60;;;24.30;99.90;;;;;;6251250;22;20094;-85
2022/06/29 09:34:33;;;;;;;2.83;1.33;;;24.40;99.90;;;;;;6279351;22;20019;-86
2022/06/29 09:37:01;;;;;;;4.32;1.63;;;24.50;99.90;;;;;;6251947;22;20037;-85
2022/06/29 09:39:38;;;;;;;2.92;1.30;;;24.50;99.90;;;;;;6279405;22;20008;-83
2022/06/29 09:42:06;;;;;;;2.80;1.38;;;24.60;99.90;;;;;;6252013;22;20094;-85
2022/06/29 09:44:33;;;;;;;4.63;1.73;;;24.70;99.90;;;;;;6252090;22;20008;-85
2022/06/29 09:47:02;;;;;;;3.47;1.75;;;24.80;99.90;;;;;;6226832;22;20090;-84
2022/06/29 09:49:29;;;;;;;3.67;1.80;;;24.90;99.90;;;;;;6251391;22;20054;-84
2022/06/29 09:51:57;;;;;;;3.33;1.63;;;25.00;99.90;;;;;;6251539;22;20011;-84
2022/06/29 09:54:31;;;;;;;4.72;1.90;;;25.20;99.90;;;;;;6277613;22;20565;-84
2022/06/29 09:56:59;;;;;;;4.60;1.92;;;25.30;99.90;;;;;;6278020;22;20050;-85
2022/06/29 10:05:16;;;;;;;4.97;1.85;;;25.00;99.90;;;;;;6279168;22;20051;-84
2022/06/29 10:07:50;;;;;;;4.43;1.63;;;24.90;99.90;;;;;;6280135;22;20076;-85
2022/06/29 10:10:19;;;;;;;2.15;1.65;;;24.70;99.90;;;;;;6228002;22;20012;-84
2022/06/29 10:16:24;;;;;;;3.80;1.65;;;24.80;99.90;;;;;;6253534;22;20016;-84
2022/06/29 10:19:08;;;;;;;3.55;1.90;;;24.90;99.90;;;;;;6279435;22;20078;-86
2022/06/29 10:21:34;;;;;;;2.22;1.70;;;25.10;99.90;;;;;;6252771;22;20016;-85
2022/06/29 10:24:01;;;;;;;9.02;1.98;;;25.20;99.90;;;;;;6251588;22;20027;-83
2022/06/29 10:26:34;;;;;;;4.65;1.40;;;25.40;99.90;;;;;;6252883;22;20015;-86
2022/06/29 10:29:06;;;;;;;2.25;1.40;;;25.50;99.90;;;;;;6252924;22;20078;-85
2022/06/29 10:31:50;;;;;;;3.58;1.60;;;25.60;99.90;;;;;;6254714;22;20012;-88
2022/06/29 10:34:32;;;;;;;4.32;1.80;;;25.80;99.90;;;;;;6285748;22;20354;-90
2022/06/29 10:37:07;;;;;;;2.55;1.70;;;26.00;99.90;;;;;;6238247;22;20015;-89
2022/06/29 10:39:45;;;;;;;;;;;26.10;99.90;;;;;;6239465;22;20012;-87
2022/06/29 10:45:21;;;;;;;2.15;1.45;;;26.60;99.90;;;;;;6259796;22;20054;-86
2022/06/29 10:47:56;;;;;;;2.72;1.50;;;26.70;97.20;;;;;;6256298;22;20012;-86
2022/06/29 10:50:23;;;;;;;3.15;1.38;;;26.80;95.10;;;;;;6256619;22;20014;-87
2022/06/29 10:52:51;;;;;;;2.85;1.75;;;26.90;96.40;;;;;;6231422;22;20008;-86
2022/06/29 10:55:18;;;;;;;2.22;1.40;;;26.90;96.10;;;;;;6258734;22;20016;-86
2022/06/29 10:57:45;;;;;;;3.53;1.50;;;26.80;96.00;;;;;;6285321;22;20078;-86
2022/06/29 11:00:27;;;;;;;5.30;1.30;;;26.80;94.90;;;;;;6284427;22;20022;-86
2022/06/29 11:02:56;;;;;;;2.60;1.40;;;27.00;94.60;;;;;;6260239;22;20008;-90
2022/06/29 11:05:22;;;;;;;3.38;1.52;;;27.10;93.70;;;;;;6236024;22;20016;-88
2022/06/29 11:13:25;;;;;;;3.55;1.40;;;27.40;94.10;;;;;;6259643;22;20016;-87
2022/06/29 11:15:54;;;;;;;4.53;1.45;;;27.50;91.20;;;;;;6235289;22;20059;-86
2022/06/29 11:18:31;;;;;;;2.38;1.25;;;27.50;90.60;;;;;;6257125;22;20027;-87
2022/06/29 11:21:02;;;;;;;3.08;1.38;;;27.50;89.30;;;;;;6284719;22;20015;-88
2022/06/29 11:23:32;;;;;;;2.45;1.40;;;27.60;90.60;;;;;;6257623;22;20313;-88
2022/06/29 11:25:58;;;;;;;2.20;1.25;;;27.60;89.50;;;;;;6285743;22;20008;-86
2022/06/29 11:28:28;;;;;;;4.95;1.48;;;27.60;90.50;;;;;;6259343;22;20014;-87
2022/06/29 11:31:09;;;;;;;2.85;1.60;;;27.70;86.90;;;;;;6282530;22;20015;-86
2022/06/29 11:33:37;;;;;;;5.45;1.55;;;27.90;90.70;;;;;;6259885;22;20016;-85
2022/06/29 11:36:14;;;;;;;2.20;1.30;;;27.80;87.60;;;;;;6257968;22;20042;-87
2022/06/29 11:38:41;;;;;;;5.00;1.20;;;27.80;85.30;;;;;;6233456;22;20012;-85
2022/06/29 11:41:16;;;;;;;2.97;1.20;;;27.80;83.90;;;;;;6285035;22;20012;-88
2022/06/29 11:43:43;;;;;;;3.58;1.25;;;27.60;84.80;;;;;;6257709;22;20020;-86
2022/06/29 11:46:22;;;;;;;4.40;1.50;;;27.60;87.20;;;;;;6258007;22;20345;-86
2022/06/29 11:51:53;;;;;;;5.18;1.85;;;27.80;76.90;;;;;;6261499;22;20016;-87
2022/06/29 11:54:40;;;;;;;9.20;2.00;;;27.90;76.50;;;;;;6234749;22;20012;-88
2022/06/29 11:57:14;;;;;;;3.33;1.60;;;28.00;79.20;;;;;;6258283;22;20043;-88
2022/06/29 11:59:40;;;;;;;3.10;1.95;;;28.10;78.00;;;;;;6284911;22;20079;-86
2022/06/29 12:02:08;;;;;;;8.85;1.55;;;28.20;73.40;;;;;;6231926;22;20016;-87
2022/06/29 12:04:37;;;;;;;4.45;1.60;;;28.10;73.80;;;;;;6285480;22;20015;-86
2022/06/29 12:07:11;;;;;;;5.35;1.92;;;28.30;74.70;;;;;;6257953;22;20446;-85
2022/06/29 12:09:38;;;;;;;4.50;1.90;;;28.30;73.10;;;;;;6259966;22;20074;-85
2022/06/29 12:12:06;;;;;;;2.97;1.90;;;28.40;72.80;;;;;;6258769;22;20023;-87
2022/06/29 12:14:31;;;;;;;18.88;3.00;;;28.40;73.70;;;;;;6254414;22;20019;-84
2022/06/29 12:16:57;;;;;;;25.50;3.08;;;28.40;76.30;;;;;;6251721;22;20012;-84
2022/06/29 12:19:23;;;;;;;4.10;2.05;;;28.40;79.80;;;;;;6252745;22;20484;-84
2022/06/29 12:21:49;;;;;;;8.82;2.00;;;28.50;80.60;;;;;;6252889;22;20012;-84
2022/06/29 12:24:17;;;;;;;3.67;1.63;;;28.40;77.90;;;;;;6252028;22;20077;-85
2022/06/29 12:26:43;;;;;;;3.05;1.90;;;28.40;74.30;;;;;;6251732;22;20382;-81
2022/06/29 12:29:09;;;;;;;8.90;2.70;;;28.40;73.90;;;;;;6285615;22;20015;-88
2022/06/29 12:31:37;;;;;;;4.53;2.30;;;28.40;78.20;;;;;;6238586;22;20015;-89
2022/06/29 12:34:04;;;;;;;4.43;2.38;;;28.50;77.80;;;;;;6233768;22;20008;-85
2022/06/29 12:36:29;;;;;;;3.72;2.13;;;28.50;79.80;;;;;;6286647;22;20007;-86
2022/06/29 12:38:56;;;;;;;5.15;2.58;;;28.60;81.80;;;;;;6288511;22;20346;-86
2022/06/29 12:41:22;;;;;;;2.78;2.13;;;28.70;84.70;;;;;;6237816;22;20015;-84
2022/06/29 12:43:47;;;;;;;3.47;2.05;;;28.60;80.00;;;;;;6262404;22;20446;-88
2022/06/29 12:46:13;;;;;;;3.45;2.35;;;28.40;76.80;;;;;;6290794;22;20063;-87
2022/06/29 12:48:39;;;;;;;3.33;2.28;;;28.40;76.50;;;;;;6238026;22;20041;-87
2022/06/29 12:51:05;;;;;;;5.03;2.67;;;28.30;73.90;;;;;;6261706;22;20016;-88
2022/06/29 12:53:31;;;;;;;6.35;2.75;;;28.30;74.90;;;;;;6237113;22;20007;-87
2022/06/29 12:55:59;;;;;;;5.20;2.53;;;28.40;78.90;;;;;;6286438;22;20076;-81
2022/06/29 12:58:25;;;;;;;3.60;2.58;;;28.50;80.60;;;;;;6256824;22;20125;-84
2022/06/29 13:00:51;;;;;;;3.38;2.72;;;28.40;80.70;;;;;;6283340;22;20391;-86
2022/06/29 13:03:17;;;;;;;4.07;2.55;;;28.30;80.70;;;;;;6257234;22;20011;-86
2022/06/29 13:05:42;;;;;;;4.75;2.40;;;28.00;79.50;;;;;;6258111;22;20018;-84
2022/06/29 13:08:08;;;;;;;4.68;2.50;;;27.70;77.80;;;;;;6256764;22;20008;-86
2022/06/29 13:10:34;;;;;;;3.17;2.30;;;27.60;78.30;;;;;;6256273;22;20011;-85
2022/06/29 13:13:00;;;;;;;3.40;2.28;;;27.50;82.00;;;;;;6255259;22;20007;-87
2022/06/29 13:15:26;;;;;;;4.80;2.25;;;27.70;79.30;;;;;;6254542;22;20315;-85
2022/06/29 13:17:52;;;;;;;3.13;2.25;;;27.70;78.60;;;;;;6282142;22;20011;-86
2022/06/29 13:20:18;;;;;;;4.80;2.40;;;27.60;78.00;;;;;;6230066;22;20020;-84
2022/06/29 13:22:44;;;;;;;3.90;2.20;;;27.40;77.50;;;;;;6258209;22;20503;-85
2022/06/29 13:25:11;;;;;;;2.70;2.28;;;27.30;78.10;;;;;;6256779;22;20030;-85
2022/06/29 13:27:36;;;;;;;6.38;2.67;;;27.10;82.00;;;;;;6256073;22;20015;-84
2022/06/29 13:30:03;;;;;;;4.03;2.20;;;27.10;85.00;;;;;;6231671;22;20008;-88
2022/06/29 13:32:29;;;;;;;4.72;2.47;;;27.00;84.00;;;;;;6231544;22;20039;-85
2022/06/29 13:34:54;;;;;;;3.28;2.63;;;27.10;84.20;;;;;;6283318;22;20016;-86
2022/06/29 13:37:20;;;;;;;4.10;2.42;;;27.20;83.10;;;;;;6255403;22;20012;-85
2022/06/29 13:39:45;;;;;;;4.25;2.65;;;27.50;83.80;;;;;;6282698;22;20008;-86
2022/06/29 13:42:11;;;;;;;6.82;2.42;;;27.70;82.20;;;;;;6254100;22;20327;-86
2022/06/29 13:44:37;;;;;;;4.78;2.40;;;27.80;81.10;;;;;;6256052;22;20021;-86
2022/06/29 13:47:03;;;;;;;4.47;2.30;;;28.00;81.40;;;;;;6256425;22;20061;-85
2022/06/29 13:49:29;;;;;;;4.25;2.97;;;28.00;81.70;;;;;;6256241;22;20012;-85
2022/06/29 13:51:55;;;;;;;5.55;2.67;;;28.00;81.90;;;;;;6284068;22;20015;-86
2022/06/29 13:54:20;;;;;;;3.08;2.40;;;27.90;83.60;;;;;;6253904;22;20126;-85
2022/06/29 13:56:46;;;;;;;4.85;2.53;;;27.90;84.30;;;;;;6255357;22;20016;-86
2022/06/29 13:59:12;;;;;;;3.45;2.53;;;28.00;85.60;;;;;;6229329;22;20525;-85
2022/06/29 14:01:37;;;;;;;6.78;3.22;;;28.20;87.40;;;;;;6228625;22;20019;-85
2022/06/29 14:04:03;;;;;;;5.97;2.58;;;28.30;85.20;;;;;;6254860;22;20121;-84
2022/06/29 14:06:29;;;;;;;4.07;2.70;;;28.50;86.50;;;;;;6252894;22;20016;-83
2022/06/29 14:08:55;;;;;;;4.15;2.53;;;28.50;84.40;;;;;;6227640;22;20019;-85
2022/06/29 14:11:20;;;;;;;4.20;2.50;;;28.50;84.20;;;;;;6253228;22;20012;-84
2022/06/29 14:13:46;;;;;;;4.45;2.28;;;28.50;85.60;;;;;;6281799;22;20333;-85
2022/06/29 14:16:12;;;;;;;4.97;1.90;;;28.50;82.40;;;;;;6255319;22;20023;-85
2022/06/29 14:18:37;;;;;;;3.55;1.88;;;28.50;78.30;;;;;;6282508;22;20015;-85
2022/06/29 14:21:03;;;;;;;3.58;1.88;;;28.50;78.40;;;;;;6282027;22;20015;-86
2022/06/29 14:23:29;;;;;;;4.30;2.10;;;28.40;78.00;;;;;;6255247;22;20054;-84
2022/06/29 14:25:55;;;;;;;3.35;1.88;;;28.40;78.00;;;;;;6229003;22;20027;-86
2022/06/29 14:28:20;;;;;;;3.83;2.30;;;28.40;78.60;;;;;;6281599;22;20008;-84
2022/06/29 14:30:46;;;;;;;4.50;1.88;;;28.30;78.80;;;;;;6282082;22;20449;-85
2022/06/29 14:33:12;;;;;;;3.35;1.85;;;28.20;76.70;;;;;;6228896;22;20004;-85
2022/06/29 14:35:38;;;;;;;4.05;2.40;;;28.00;75.60;;;;;;6281028;22;20066;-87
2022/06/29 14:38:05;;;;;;;2.95;1.60;;;27.80;76.00;;;;;;6281457;22;20165;-85
2022/06/29 14:40:32;;;;;;;3.10;1.77;;;27.70;74.50;;;;;;6228138;22;20015;-84
2022/06/29 14:42:58;;;;;;;4.90;1.73;;;27.50;74.20;;;;;;6254826;22;20018;-85
2022/06/29 14:45:24;;;;;;;4.72;2.10;;;27.50;75.80;;;;;;6256231;22;20073;-84
2022/06/29 14:47:49;;;;;;;4.53;1.90;;;27.40;77.90;;;;;;6282145;22;20041;-84
2022/06/29 14:50:15;;;;;;;5.65;1.60;;;27.50;79.40;;;;;;6230710;22;20020;-84
2022/06/29 14:52:41;;;;;;;3.63;1.77;;;27.50;79.20;;;;;;6256089;22;20011;-85
2022/06/29 14:55:10;;;;;;;2.10;1.60;;;27.50;78.80;;;;;;6254987;22;20015;-84
2022/06/29 14:57:36;;;;;;;2.80;1.58;;;27.60;76.60;;;;;;6256026;22;20015;-87
2022/06/29 15:00:05;;;;;;;3.83;1.73;;;27.70;76.00;;;;;;6282076;22;20012;-86
2022/06/29 15:02:31;;;;;;;6.25;1.60;;;27.80;76.40;;;;;;6254394;22;20023;-86
2022/06/29 15:04:57;;;;;;;3.35;1.85;;;27.90;77.40;;;;;;6282910;22;20052;-87
2022/06/29 15:07:22;;;;;;;3.10;1.70;;;28.10;74.70;;;;;;6283533;22;20016;-84
2022/06/29 15:09:48;;;;;;;3.45;1.60;;;28.20;73.20;;;;;;6257534;22;20019;-86
2022/06/29 15:12:14;;;;;;;4.13;1.52;;;28.20;71.30;;;;;;6233291;22;20095;-87
2022/06/29 15:14:40;;;;;;;4.18;1.52;;;28.30;71.40;;;;;;6257421;22;20007;-85
2022/06/29 15:17:06;;;;;;;2.42;1.40;;;28.30;71.30;;;;;;6232634;22;20012;-85
2022/06/29 15:19:32;;;;;;;2.53;1.70;;;28.30;72.10;;;;;;6258205;22;20096;-87
2022/06/29 15:21:58;;;;;;;4.72;1.45;;;28.30;71.10;;;;;;6282902;22;20064;-84
2022/06/29 15:24:26;;;;;;;2.65;1.70;;;28.40;71.40;;;;;;6282670;22;20022;-86
2022/06/29 15:26:52;;;;;;;4.90;1.80;;;28.40;72.60;;;;;;6254818;22;20057;-87
2022/06/29 15:29:18;;;;;;;4.00;1.55;;;28.40;73.20;;;;;;6230734;22;20019;-87
2022/06/29 15:31:44;;;;;;;5.28;1.70;;;28.50;71.10;;;;;;6257250;22;20008;-83
2022/06/29 15:39:39;;;;;;;3.57;1.60;;;28.60;72.80;;;;;;6258181;22;20024;-86
2022/06/29 15:42:06;;;;;;;2.35;1.40;;;28.60;73.80;;;;;;6284263;22;20296;-85
2022/06/29 15:44:31;;;;;;;4.13;1.70;;;28.60;74.40;;;;;;6284404;22;20019;-87
2022/06/29 15:46:57;;;;;;;4.25;1.58;;;28.70;73.00;;;;;;6231573;22;20015;-85
2022/06/29 15:49:23;;;;;;;2.83;1.70;;;28.60;73.90;;;;;;6258543;22;20026;-85
2022/06/29 15:51:49;;;;;;;3.97;1.58;;;28.60;72.50;;;;;;6285810;22;20014;-84
2022/06/29 15:56:59;;;;;;;4.15;1.52;;;28.60;72.30;;;;;;6257268;22;20020;-84
2022/06/29 15:59:24;;;;;;;3.97;1.55;;;28.60;71.50;;;;;;6256271;22;20057;-87
2022/06/29 16:01:50;;;;;;;4.43;1.85;;;28.50;72.30;;;;;;6255352;22;20388;-85
2022/06/29 16:04:16;;;;;;;4.55;1.55;;;28.40;72.20;;;;;;6283772;22;20019;-86
2022/06/29 16:06:42;;;;;;;3.33;1.60;;;28.40;72.30;;;;;;6232989;22;20015;-88
2022/06/29 16:09:08;;;;;;;4.10;1.40;;;28.40;72.30;;;;;;6258609;22;20012;-85
2022/06/29 16:14:19;;;;;;;3.75;1.60;;;28.40;73.10;;;;;;6271189;22;20011;-84
2022/06/29 16:16:45;;;;;;;5.03;2.10;;;28.40;72.50;;;;;;6271337;22;20022;-84
2022/06/29 16:19:10;;;;;;;3.28;1.60;;;28.40;71.90;;;;;;6246303;22;20016;-84
2022/06/29 16:21:36;;;;;;;4.03;1.45;;;28.40;70.90;;;;;;6270104;22;20012;-84
2022/06/29 16:24:03;;;;;;;4.40;1.38;;;28.40;72.50;;;;;;6250344;22;20007;-86
2022/06/29 16:26:29;;;;;;;3.08;1.40;;;28.40;71.80;;;;;;6276667;22;20025;-85